sensor_id;sensor_type;location;lat;lon;timestamp;temperature;humidity
65038;DHT22;51605;47.040;15.294;2023-07-29T00:00:57;24.10;50.40
65038;DHT22;51605;47.040;15.294;2023-07-29T00:03:23;24.00;50.40
65038;DHT22;51605;47.040;15.294;2023-07-29T00:05:49;24.10;50.50
65038;DHT22;51605;47.040;15.294;2023-07-29T00:08:14;24.00;50.40
65038;DHT22;51605;47.040;15.294;2023-07-29T00:10:40;24.00;50.40
65038;DHT22;51605;47.040;15.294;2023-07-29T00:13:06;24.00;50.40
65038;DHT22;51605;47.040;15.294;2023-07-29T00:15:32;24.00;50.50
65038;DHT22;51605;47.040;15.294;2023-07-29T00:17:58;24.10;50.50
65038;DHT22;51605;47.040;15.294;2023-07-29T00:20:24;24.10;50.50
65038;DHT22;51605;47.040;15.294;2023-07-29T00:22:49;24.10;50.50
65038;DHT22;51605;47.040;15.294;2023-07-29T00:25:17;24.10;50.50
65038;DHT22;51605;47.040;15.294;2023-07-29T00:27:43;24.00;50.50
65038;DHT22;51605;47.040;15.294;2023-07-29T00:30:09;24.00;50.50
65038;DHT22;51605;47.040;15.294;2023-07-29T00:32:35;24.10;50.60
65038;DHT22;51605;47.040;15.294;2023-07-29T00:35:01;24.00;50.50
65038;DHT22;51605;47.040;15.294;2023-07-29T00:37:28;24.00;50.60
65038;DHT22;51605;47.040;15.294;2023-07-29T00:39:53;24.00;50.50
65038;DHT22;51605;47.040;15.294;2023-07-29T00:42:19;24.10;50.60
65038;DHT22;51605;47.040;15.294;2023-07-29T00:44:45;24.10;50.60
65038;DHT22;51605;47.040;15.294;2023-07-29T00:47:11;24.00;50.50
65038;DHT22;51605;47.040;15.294;2023-07-29T00:49:38;24.10;50.60
65038;DHT22;51605;47.040;15.294;2023-07-29T00:52:04;24.10;50.60
65038;DHT22;51605;47.040;15.294;2023-07-29T00:54:29;24.00;50.50
65038;DHT22;51605;47.040;15.294;2023-07-29T00:56:55;24.00;50.50
65038;DHT22;51605;47.040;15.294;2023-07-29T00:59:21;24.10;50.60
65038;DHT22;51605;47.040;15.294;2023-07-29T01:01:48;24.00;50.50
65038;DHT22;51605;47.040;15.294;2023-07-29T01:04:14;24.10;50.60
65038;DHT22;51605;47.040;15.294;2023-07-29T01:07:09;24.10;50.60
65038;DHT22;51605;47.040;15.294;2023-07-29T01:09:50;24.00;50.60
65038;DHT22;51605;47.040;15.294;2023-07-29T01:12:44;24.00;50.60
65038;DHT22;51605;47.040;15.294;2023-07-29T01:15:16;24.00;50.50
65038;DHT22;51605;47.040;15.294;2023-07-29T01:17:47;24.00;50.50
65038;DHT22;51605;47.040;15.294;2023-07-29T01:20:15;24.00;50.60
65038;DHT22;51605;47.040;15.294;2023-07-29T01:22:41;24.00;50.60
65038;DHT22;51605;47.040;15.294;2023-07-29T01:25:07;24.00;50.60
65038;DHT22;51605;47.040;15.294;2023-07-29T01:27:33;24.00;50.60
65038;DHT22;51605;47.040;15.294;2023-07-29T01:29:59;24.00;50.60
65038;DHT22;51605;47.040;15.294;2023-07-29T01:32:28;24.00;50.50
65038;DHT22;51605;47.040;15.294;2023-07-29T01:35:00;24.10;50.60
65038;DHT22;51605;47.040;15.294;2023-07-29T01:37:30;24.00;50.70
65038;DHT22;51605;47.040;15.294;2023-07-29T01:39:59;24.00;50.60
65038;DHT22;51605;47.040;15.294;2023-07-29T01:42:25;24.00;50.60
65038;DHT22;51605;47.040;15.294;2023-07-29T01:44:52;24.00;50.60
65038;DHT22;51605;47.040;15.294;2023-07-29T01:47:18;24.00;50.60
65038;DHT22;51605;47.040;15.294;2023-07-29T01:49:43;24.00;50.60
65038;DHT22;51605;47.040;15.294;2023-07-29T01:52:09;24.10;50.70
65038;DHT22;51605;47.040;15.294;2023-07-29T01:54:35;24.10;50.60
65038;DHT22;51605;47.040;15.294;2023-07-29T01:57:00;24.10;50.60
65038;DHT22;51605;47.040;15.294;2023-07-29T01:59:26;24.00;50.50
65038;DHT22;51605;47.040;15.294;2023-07-29T02:01:51;24.10;50.90
65038;DHT22;51605;47.040;15.294;2023-07-29T02:04:17;24.10;50.60
65038;DHT22;51605;47.040;15.294;2023-07-29T02:06:42;24.00;50.50
65038;DHT22;51605;47.040;15.294;2023-07-29T02:09:08;24.00;50.60
65038;DHT22;51605;47.040;15.294;2023-07-29T02:11:34;24.10;50.60
65038;DHT22;51605;47.040;15.294;2023-07-29T02:13:59;24.10;50.60
65038;DHT22;51605;47.040;15.294;2023-07-29T02:16:25;24.00;50.50
65038;DHT22;51605;47.040;15.294;2023-07-29T02:18:50;24.10;50.60
65038;DHT22;51605;47.040;15.294;2023-07-29T02:21:16;24.10;50.60
65038;DHT22;51605;47.040;15.294;2023-07-29T02:23:42;24.10;50.60
65038;DHT22;51605;47.040;15.294;2023-07-29T02:26:07;24.00;50.70
65038;DHT22;51605;47.040;15.294;2023-07-29T02:28:33;24.00;50.60
65038;DHT22;51605;47.040;15.294;2023-07-29T02:31:19;24.00;50.70
65038;DHT22;51605;47.040;15.294;2023-07-29T02:33:45;24.00;50.80
65038;DHT22;51605;47.040;15.294;2023-07-29T02:36:12;24.00;50.60
65038;DHT22;51605;47.040;15.294;2023-07-29T02:38:38;24.00;50.70
65038;DHT22;51605;47.040;15.294;2023-07-29T02:41:04;24.10;50.70
65038;DHT22;51605;47.040;15.294;2023-07-29T02:43:29;24.00;50.60
65038;DHT22;51605;47.040;15.294;2023-07-29T02:45:55;24.00;50.60
65038;DHT22;51605;47.040;15.294;2023-07-29T02:48:21;24.00;50.60
65038;DHT22;51605;47.040;15.294;2023-07-29T02:50:46;24.00;50.60
65038;DHT22;51605;47.040;15.294;2023-07-29T02:53:12;24.10;50.70
65038;DHT22;51605;47.040;15.294;2023-07-29T02:55:41;24.00;50.60
65038;DHT22;51605;47.040;15.294;2023-07-29T02:58:07;24.10;50.70
65038;DHT22;51605;47.040;15.294;2023-07-29T03:00:33;24.00;50.60
65038;DHT22;51605;47.040;15.294;2023-07-29T03:02:59;24.00;50.70
65038;DHT22;51605;47.040;15.294;2023-07-29T03:05:27;24.10;50.70
65038;DHT22;51605;47.040;15.294;2023-07-29T03:07:53;24.00;50.70
65038;DHT22;51605;47.040;15.294;2023-07-29T03:10:18;24.00;50.70
65038;DHT22;51605;47.040;15.294;2023-07-29T03:12:44;24.10;50.70
65038;DHT22;51605;47.040;15.294;2023-07-29T03:15:10;24.10;50.70
65038;DHT22;51605;47.040;15.294;2023-07-29T03:17:35;24.00;50.70
65038;DHT22;51605;47.040;15.294;2023-07-29T03:20:01;24.00;50.70
65038;DHT22;51605;47.040;15.294;2023-07-29T03:22:27;24.10;50.80
65038;DHT22;51605;47.040;15.294;2023-07-29T03:24:52;24.10;50.70
65038;DHT22;51605;47.040;15.294;2023-07-29T03:27:18;24.10;50.70
65038;DHT22;51605;47.040;15.294;2023-07-29T03:29:43;24.10;50.70
65038;DHT22;51605;47.040;15.294;2023-07-29T03:32:09;24.00;50.70
65038;DHT22;51605;47.040;15.294;2023-07-29T03:34:35;24.10;50.70
65038;DHT22;51605;47.040;15.294;2023-07-29T03:37:01;24.00;50.70
65038;DHT22;51605;47.040;15.294;2023-07-29T03:39:27;24.00;50.80
65038;DHT22;51605;47.040;15.294;2023-07-29T03:41:52;24.00;51.70
65038;DHT22;51605;47.040;15.294;2023-07-29T03:44:18;24.10;50.80
65038;DHT22;51605;47.040;15.294;2023-07-29T03:46:44;24.00;50.60
65038;DHT22;51605;47.040;15.294;2023-07-29T03:49:10;24.00;50.70
65038;DHT22;51605;47.040;15.294;2023-07-29T03:51:36;24.00;50.70
65038;DHT22;51605;47.040;15.294;2023-07-29T03:54:01;24.00;50.70
65038;DHT22;51605;47.040;15.294;2023-07-29T03:56:27;24.00;51.00
65038;DHT22;51605;47.040;15.294;2023-07-29T03:58:53;24.10;50.80
65038;DHT22;51605;47.040;15.294;2023-07-29T04:01:19;24.00;50.80
65038;DHT22;51605;47.040;15.294;2023-07-29T04:03:45;24.00;50.80
65038;DHT22;51605;47.040;15.294;2023-07-29T04:06:14;24.00;50.90
65038;DHT22;51605;47.040;15.294;2023-07-29T04:08:39;24.10;50.90
65038;DHT22;51605;47.040;15.294;2023-07-29T04:11:07;24.00;50.80
65038;DHT22;51605;47.040;15.294;2023-07-29T04:13:32;24.10;50.90
65038;DHT22;51605;47.040;15.294;2023-07-29T04:15:58;24.00;50.90
65038;DHT22;51605;47.040;15.294;2023-07-29T04:18:23;24.10;50.90
65038;DHT22;51605;47.040;15.294;2023-07-29T04:20:49;24.00;50.90
65038;DHT22;51605;47.040;15.294;2023-07-29T04:23:15;24.10;50.90
65038;DHT22;51605;47.040;15.294;2023-07-29T04:25:40;24.00;50.80
65038;DHT22;51605;47.040;15.294;2023-07-29T04:28:06;24.00;50.80
65038;DHT22;51605;47.040;15.294;2023-07-29T04:30:31;24.00;50.90
65038;DHT22;51605;47.040;15.294;2023-07-29T04:32:57;24.10;50.90
65038;DHT22;51605;47.040;15.294;2023-07-29T04:35:23;24.00;50.90
65038;DHT22;51605;47.040;15.294;2023-07-29T04:37:48;24.00;50.90
65038;DHT22;51605;47.040;15.294;2023-07-29T04:40:14;24.10;50.90
65038;DHT22;51605;47.040;15.294;2023-07-29T04:42:40;24.00;50.90
65038;DHT22;51605;47.040;15.294;2023-07-29T04:45:06;24.00;50.90
65038;DHT22;51605;47.040;15.294;2023-07-29T04:47:31;24.00;50.90
65038;DHT22;51605;47.040;15.294;2023-07-29T04:49:57;24.00;50.80
65038;DHT22;51605;47.040;15.294;2023-07-29T04:52:22;24.10;50.90
65038;DHT22;51605;47.040;15.294;2023-07-29T04:54:48;24.00;50.80
65038;DHT22;51605;47.040;15.294;2023-07-29T04:57:14;24.10;50.90
65038;DHT22;51605;47.040;15.294;2023-07-29T04:59:39;24.00;50.80
65038;DHT22;51605;47.040;15.294;2023-07-29T05:02:05;24.00;50.80
65038;DHT22;51605;47.040;15.294;2023-07-29T05:04:31;24.00;50.90
65038;DHT22;51605;47.040;15.294;2023-07-29T05:06:56;24.00;50.90
65038;DHT22;51605;47.040;15.294;2023-07-29T05:09:23;24.10;51.00
65038;DHT22;51605;47.040;15.294;2023-07-29T05:11:49;24.10;50.90
65038;DHT22;51605;47.040;15.294;2023-07-29T05:14:15;24.10;50.90
65038;DHT22;51605;47.040;15.294;2023-07-29T05:16:41;24.00;50.80
65038;DHT22;51605;47.040;15.294;2023-07-29T05:19:07;24.10;50.90
65038;DHT22;51605;47.040;15.294;2023-07-29T05:21:33;24.10;50.80
65038;DHT22;51605;47.040;15.294;2023-07-29T05:23:59;24.00;50.80
65038;DHT22;51605;47.040;15.294;2023-07-29T05:26:24;24.00;50.90
65038;DHT22;51605;47.040;15.294;2023-07-29T05:28:50;24.00;50.90
65038;DHT22;51605;47.040;15.294;2023-07-29T05:31:16;24.10;50.90
65038;DHT22;51605;47.040;15.294;2023-07-29T05:33:42;24.10;51.00
65038;DHT22;51605;47.040;15.294;2023-07-29T05:36:07;24.10;50.90
65038;DHT22;51605;47.040;15.294;2023-07-29T05:38:33;24.10;50.90
65038;DHT22;51605;47.040;15.294;2023-07-29T05:40:59;24.00;50.90
65038;DHT22;51605;47.040;15.294;2023-07-29T05:43:24;24.10;50.90
65038;DHT22;51605;47.040;15.294;2023-07-29T05:45:50;24.00;50.90
65038;DHT22;51605;47.040;15.294;2023-07-29T05:48:16;24.10;50.90
65038;DHT22;51605;47.040;15.294;2023-07-29T05:50:42;24.00;50.80
65038;DHT22;51605;47.040;15.294;2023-07-29T05:53:07;24.00;50.80
65038;DHT22;51605;47.040;15.294;2023-07-29T05:55:33;24.10;50.90
65038;DHT22;51605;47.040;15.294;2023-07-29T05:57:59;24.10;50.90
65038;DHT22;51605;47.040;15.294;2023-07-29T06:00:25;24.10;50.90
65038;DHT22;51605;47.040;15.294;2023-07-29T06:02:50;24.10;50.90
65038;DHT22;51605;47.040;15.294;2023-07-29T06:05:16;24.10;50.90
65038;DHT22;51605;47.040;15.294;2023-07-29T06:07:41;24.10;50.90
65038;DHT22;51605;47.040;15.294;2023-07-29T06:10:14;24.00;50.90
65038;DHT22;51605;47.040;15.294;2023-07-29T06:12:43;24.00;50.90
65038;DHT22;51605;47.040;15.294;2023-07-29T06:15:09;24.00;50.90
65038;DHT22;51605;47.040;15.294;2023-07-29T06:17:35;24.00;50.90
65038;DHT22;51605;47.040;15.294;2023-07-29T06:20:00;24.00;50.90
65038;DHT22;51605;47.040;15.294;2023-07-29T06:22:26;24.10;50.90
65038;DHT22;51605;47.040;15.294;2023-07-29T06:24:51;24.00;50.90
65038;DHT22;51605;47.040;15.294;2023-07-29T06:27:17;24.10;50.90
65038;DHT22;51605;47.040;15.294;2023-07-29T06:29:43;24.00;50.90
65038;DHT22;51605;47.040;15.294;2023-07-29T06:32:08;24.10;50.90
65038;DHT22;51605;47.040;15.294;2023-07-29T06:34:34;24.00;50.90
65038;DHT22;51605;47.040;15.294;2023-07-29T06:37:00;24.10;50.90
65038;DHT22;51605;47.040;15.294;2023-07-29T06:39:25;24.00;50.90
65038;DHT22;51605;47.040;15.294;2023-07-29T06:41:51;24.10;50.80
65038;DHT22;51605;47.040;15.294;2023-07-29T06:44:16;24.10;50.80
65038;DHT22;51605;47.040;15.294;2023-07-29T06:46:42;24.10;50.70
65038;DHT22;51605;47.040;15.294;2023-07-29T06:49:08;24.10;50.70
65038;DHT22;51605;47.040;15.294;2023-07-29T06:51:33;24.10;50.90
65038;DHT22;51605;47.040;15.294;2023-07-29T06:54:03;24.10;50.80
65038;DHT22;51605;47.040;15.294;2023-07-29T06:56:29;24.10;50.80
65038;DHT22;51605;47.040;15.294;2023-07-29T06:58:55;24.10;50.80
65038;DHT22;51605;47.040;15.294;2023-07-29T07:01:20;24.10;50.80
65038;DHT22;51605;47.040;15.294;2023-07-29T07:03:46;24.10;50.90
65038;DHT22;51605;47.040;15.294;2023-07-29T07:06:12;24.10;50.80
65038;DHT22;51605;47.040;15.294;2023-07-29T07:08:37;24.10;50.80
65038;DHT22;51605;47.040;15.294;2023-07-29T07:11:03;24.10;50.90
65038;DHT22;51605;47.040;15.294;2023-07-29T07:13:28;24.00;50.90
65038;DHT22;51605;47.040;15.294;2023-07-29T07:15:55;24.10;50.90
65038;DHT22;51605;47.040;15.294;2023-07-29T07:18:21;24.00;50.90
65038;DHT22;51605;47.040;15.294;2023-07-29T07:20:49;24.00;50.90
65038;DHT22;51605;47.040;15.294;2023-07-29T07:23:16;24.10;50.90
65038;DHT22;51605;47.040;15.294;2023-07-29T07:25:42;24.00;50.90
65038;DHT22;51605;47.040;15.294;2023-07-29T07:28:08;24.00;50.90
65038;DHT22;51605;47.040;15.294;2023-07-29T07:30:34;24.00;50.90
65038;DHT22;51605;47.040;15.294;2023-07-29T07:33:00;24.00;50.90
65038;DHT22;51605;47.040;15.294;2023-07-29T07:35:26;24.00;51.00
65038;DHT22;51605;47.040;15.294;2023-07-29T07:37:52;24.00;50.90
65038;DHT22;51605;47.040;15.294;2023-07-29T07:40:17;24.00;50.90
65038;DHT22;51605;47.040;15.294;2023-07-29T07:42:43;24.00;50.90
65038;DHT22;51605;47.040;15.294;2023-07-29T07:45:09;24.10;51.00
65038;DHT22;51605;47.040;15.294;2023-07-29T07:47:34;24.00;50.90
65038;DHT22;51605;47.040;15.294;2023-07-29T07:50:00;24.00;51.00
65038;DHT22;51605;47.040;15.294;2023-07-29T07:52:25;24.00;50.90
65038;DHT22;51605;47.040;15.294;2023-07-29T07:54:54;24.00;50.90
65038;DHT22;51605;47.040;15.294;2023-07-29T07:57:21;24.00;50.90
65038;DHT22;51605;47.040;15.294;2023-07-29T07:59:47;24.00;50.90
65038;DHT22;51605;47.040;15.294;2023-07-29T08:02:12;24.00;50.90
65038;DHT22;51605;47.040;15.294;2023-07-29T08:04:38;24.00;50.90
65038;DHT22;51605;47.040;15.294;2023-07-29T08:07:04;24.00;50.90
65038;DHT22;51605;47.040;15.294;2023-07-29T08:09:30;24.00;50.90
65038;DHT22;51605;47.040;15.294;2023-07-29T08:11:55;24.00;50.90
65038;DHT22;51605;47.040;15.294;2023-07-29T08:14:21;24.00;50.90
65038;DHT22;51605;47.040;15.294;2023-07-29T08:16:46;24.00;50.90
65038;DHT22;51605;47.040;15.294;2023-07-29T08:19:12;24.00;50.90
65038;DHT22;51605;47.040;15.294;2023-07-29T08:21:38;24.00;50.90
65038;DHT22;51605;47.040;15.294;2023-07-29T08:24:03;24.00;50.90
65038;DHT22;51605;47.040;15.294;2023-07-29T08:26:29;24.00;50.90
65038;DHT22;51605;47.040;15.294;2023-07-29T08:28:55;24.00;50.90
65038;DHT22;51605;47.040;15.294;2023-07-29T08:31:20;24.00;50.90
65038;DHT22;51605;47.040;15.294;2023-07-29T08:33:46;24.00;50.90
65038;DHT22;51605;47.040;15.294;2023-07-29T08:36:11;24.00;50.90
65038;DHT22;51605;47.040;15.294;2023-07-29T08:38:37;24.00;50.90
65038;DHT22;51605;47.040;15.294;2023-07-29T08:43:32;24.00;50.90
65038;DHT22;51605;47.040;15.294;2023-07-29T08:45:59;24.00;50.90
65038;DHT22;51605;47.040;15.294;2023-07-29T08:48:41;24.00;50.90
65038;DHT22;51605;47.040;15.294;2023-07-29T08:51:11;24.00;50.90
65038;DHT22;51605;47.040;15.294;2023-07-29T08:53:38;24.00;50.90
65038;DHT22;51605;47.040;15.294;2023-07-29T08:56:05;24.00;50.90
65038;DHT22;51605;47.040;15.294;2023-07-29T08:58:31;24.00;50.90
65038;DHT22;51605;47.040;15.294;2023-07-29T09:00:57;24.00;50.90
65038;DHT22;51605;47.040;15.294;2023-07-29T09:03:23;24.00;50.90
65038;DHT22;51605;47.040;15.294;2023-07-29T09:05:50;24.00;50.90
65038;DHT22;51605;47.040;15.294;2023-07-29T09:08:16;24.00;50.90
65038;DHT22;51605;47.040;15.294;2023-07-29T09:10:42;24.00;50.90
65038;DHT22;51605;47.040;15.294;2023-07-29T09:13:08;24.00;50.90
65038;DHT22;51605;47.040;15.294;2023-07-29T09:15:35;24.00;50.90
65038;DHT22;51605;47.040;15.294;2023-07-29T09:18:30;24.00;50.90
65038;DHT22;51605;47.040;15.294;2023-07-29T09:20:59;24.00;50.90
65038;DHT22;51605;47.040;15.294;2023-07-29T09:23:26;24.10;51.00
65038;DHT22;51605;47.040;15.294;2023-07-29T09:26:00;24.00;50.90
65038;DHT22;51605;47.040;15.294;2023-07-29T09:28:25;24.10;51.00
65038;DHT22;51605;47.040;15.294;2023-07-29T09:30:53;24.10;51.00
65038;DHT22;51605;47.040;15.294;2023-07-29T09:33:19;24.00;51.90
65038;DHT22;51605;47.040;15.294;2023-07-29T09:35:45;24.00;50.90
65038;DHT22;51605;47.040;15.294;2023-07-29T09:38:14;24.00;50.90
65038;DHT22;51605;47.040;15.294;2023-07-29T09:40:41;24.10;51.00
65038;DHT22;51605;47.040;15.294;2023-07-29T09:43:10;24.00;50.90
65038;DHT22;51605;47.040;15.294;2023-07-29T09:45:36;24.00;50.90
65038;DHT22;51605;47.040;15.294;2023-07-29T09:48:03;24.00;50.90
65038;DHT22;51605;47.040;15.294;2023-07-29T09:50:30;24.10;51.00
65038;DHT22;51605;47.040;15.294;2023-07-29T09:52:56;24.10;51.00
65038;DHT22;51605;47.040;15.294;2023-07-29T09:55:25;24.10;51.00
65038;DHT22;51605;47.040;15.294;2023-07-29T09:57:58;24.10;51.00
65038;DHT22;51605;47.040;15.294;2023-07-29T10:00:30;24.00;51.00
65038;DHT22;51605;47.040;15.294;2023-07-29T10:02:58;24.00;50.90
65038;DHT22;51605;47.040;15.294;2023-07-29T10:05:26;24.00;50.90
65038;DHT22;51605;47.040;15.294;2023-07-29T10:07:52;24.00;50.90
65038;DHT22;51605;47.040;15.294;2023-07-29T10:10:20;24.00;50.90
65038;DHT22;51605;47.040;15.294;2023-07-29T10:12:46;24.00;50.90
65038;DHT22;51605;47.040;15.294;2023-07-29T10:15:12;24.10;51.00
65038;DHT22;51605;47.040;15.294;2023-07-29T10:17:39;24.10;51.00
65038;DHT22;51605;47.040;15.294;2023-07-29T10:20:08;24.10;51.00
65038;DHT22;51605;47.040;15.294;2023-07-29T10:22:42;24.00;50.90
65038;DHT22;51605;47.040;15.294;2023-07-29T10:25:13;24.00;50.90
65038;DHT22;51605;47.040;15.294;2023-07-29T10:30:15;24.10;51.00
65038;DHT22;51605;47.040;15.294;2023-07-29T10:32:42;24.10;51.00
65038;DHT22;51605;47.040;15.294;2023-07-29T10:35:12;24.10;51.00
65038;DHT22;51605;47.040;15.294;2023-07-29T10:37:38;24.10;51.00
65038;DHT22;51605;47.040;15.294;2023-07-29T10:40:07;24.00;50.90
65038;DHT22;51605;47.040;15.294;2023-07-29T10:42:33;24.10;50.90
65038;DHT22;51605;47.040;15.294;2023-07-29T10:44:58;24.10;51.00
65038;DHT22;51605;47.040;15.294;2023-07-29T10:47:26;24.10;51.00
65038;DHT22;51605;47.040;15.294;2023-07-29T10:49:57;24.00;51.00
65038;DHT22;51605;47.040;15.294;2023-07-29T10:55:02;24.10;51.00
65038;DHT22;51605;47.040;15.294;2023-07-29T10:57:37;24.10;51.00
65038;DHT22;51605;47.040;15.294;2023-07-29T11:00:05;24.00;50.90
65038;DHT22;51605;47.040;15.294;2023-07-29T11:02:39;24.00;50.90
65038;DHT22;51605;47.040;15.294;2023-07-29T11:05:17;24.00;50.90
65038;DHT22;51605;47.040;15.294;2023-07-29T11:07:49;24.00;50.90
65038;DHT22;51605;47.040;15.294;2023-07-29T11:10:15;24.00;50.90
65038;DHT22;51605;47.040;15.294;2023-07-29T11:12:49;24.00;50.90
65038;DHT22;51605;47.040;15.294;2023-07-29T11:15:21;24.00;50.90
65038;DHT22;51605;47.040;15.294;2023-07-29T11:17:51;24.10;51.00
65038;DHT22;51605;47.040;15.294;2023-07-29T11:20:19;24.10;51.00
65038;DHT22;51605;47.040;15.294;2023-07-29T11:22:45;24.00;51.00
65038;DHT22;51605;47.040;15.294;2023-07-29T11:25:13;24.10;51.00
65038;DHT22;51605;47.040;15.294;2023-07-29T11:27:39;24.00;50.90
65038;DHT22;51605;47.040;15.294;2023-07-29T11:30:06;24.00;50.90
65038;DHT22;51605;47.040;15.294;2023-07-29T11:32:34;24.00;50.90
65038;DHT22;51605;47.040;15.294;2023-07-29T11:35:04;24.10;51.00
65038;DHT22;51605;47.040;15.294;2023-07-29T11:37:30;24.10;51.00
65038;DHT22;51605;47.040;15.294;2023-07-29T11:39:55;24.10;50.90
65038;DHT22;51605;47.040;15.294;2023-07-29T11:42:21;24.10;51.00
65038;DHT22;51605;47.040;15.294;2023-07-29T11:44:46;24.00;50.90
65038;DHT22;51605;47.040;15.294;2023-07-29T11:47:13;24.10;51.00
65038;DHT22;51605;47.040;15.294;2023-07-29T11:49:40;24.10;51.00
65038;DHT22;51605;47.040;15.294;2023-07-29T11:52:09;24.10;51.00
65038;DHT22;51605;47.040;15.294;2023-07-29T11:54:39;24.10;51.00
65038;DHT22;51605;47.040;15.294;2023-07-29T11:57:06;24.00;50.90
65038;DHT22;51605;47.040;15.294;2023-07-29T11:59:37;24.10;51.00
65038;DHT22;51605;47.040;15.294;2023-07-29T12:02:13;24.00;50.90
65038;DHT22;51605;47.040;15.294;2023-07-29T12:04:39;24.00;50.90
65038;DHT22;51605;47.040;15.294;2023-07-29T12:07:06;24.00;50.90
65038;DHT22;51605;47.040;15.294;2023-07-29T12:09:31;24.00;50.90
65038;DHT22;51605;47.040;15.294;2023-07-29T12:11:58;24.00;50.90
65038;DHT22;51605;47.040;15.294;2023-07-29T12:14:28;24.00;50.90
65038;DHT22;51605;47.040;15.294;2023-07-29T12:16:54;24.00;50.90
65038;DHT22;51605;47.040;15.294;2023-07-29T12:19:20;24.00;50.90
65038;DHT22;51605;47.040;15.294;2023-07-29T12:21:47;24.00;50.90
65038;DHT22;51605;47.040;15.294;2023-07-29T12:24:13;24.00;50.90
65038;DHT22;51605;47.040;15.294;2023-07-29T12:26:40;24.10;51.00
65038;DHT22;51605;47.040;15.294;2023-07-29T12:29:16;24.10;51.00
65038;DHT22;51605;47.040;15.294;2023-07-29T12:31:42;24.00;50.90
65038;DHT22;51605;47.040;15.294;2023-07-29T12:34:08;24.00;50.90
65038;DHT22;51605;47.040;15.294;2023-07-29T12:36:43;24.00;50.90
65038;DHT22;51605;47.040;15.294;2023-07-29T12:39:21;24.00;51.90
65038;DHT22;51605;47.040;15.294;2023-07-29T12:41:48;24.00;50.90
65038;DHT22;51605;47.040;15.294;2023-07-29T12:44:14;24.00;50.90
65038;DHT22;51605;47.040;15.294;2023-07-29T12:46:40;24.00;50.90
65038;DHT22;51605;47.040;15.294;2023-07-29T12:49:05;24.00;50.90
65038;DHT22;51605;47.040;15.294;2023-07-29T12:51:31;24.00;50.90
65038;DHT22;51605;47.040;15.294;2023-07-29T12:53:57;24.00;50.90
65038;DHT22;51605;47.040;15.294;2023-07-29T12:56:23;24.00;50.90
65038;DHT22;51605;47.040;15.294;2023-07-29T12:58:48;24.00;50.90
65038;DHT22;51605;47.040;15.294;2023-07-29T13:01:15;24.00;50.90
65038;DHT22;51605;47.040;15.294;2023-07-29T13:03:43;24.00;50.90
65038;DHT22;51605;47.040;15.294;2023-07-29T13:06:09;24.00;50.90
65038;DHT22;51605;47.040;15.294;2023-07-29T13:08:34;24.00;50.90
65038;DHT22;51605;47.040;15.294;2023-07-29T13:11:00;24.00;50.90
65038;DHT22;51605;47.040;15.294;2023-07-29T13:13:25;24.00;50.90
65038;DHT22;51605;47.040;15.294;2023-07-29T13:15:51;24.00;50.90
65038;DHT22;51605;47.040;15.294;2023-07-29T13:18:18;24.00;50.90
65038;DHT22;51605;47.040;15.294;2023-07-29T13:20:43;24.00;50.90
65038;DHT22;51605;47.040;15.294;2023-07-29T13:23:09;24.00;50.90
65038;DHT22;51605;47.040;15.294;2023-07-29T13:25:35;24.00;50.90
65038;DHT22;51605;47.040;15.294;2023-07-29T13:28:00;24.00;51.00
65038;DHT22;51605;47.040;15.294;2023-07-29T13:30:26;24.00;50.90
65038;DHT22;51605;47.040;15.294;2023-07-29T13:32:51;24.00;51.00
65038;DHT22;51605;47.040;15.294;2023-07-29T13:35:17;24.00;50.90
65038;DHT22;51605;47.040;15.294;2023-07-29T13:37:43;24.00;51.00
65038;DHT22;51605;47.040;15.294;2023-07-29T13:40:08;24.00;50.90
65038;DHT22;51605;47.040;15.294;2023-07-29T13:42:34;24.00;50.90
65038;DHT22;51605;47.040;15.294;2023-07-29T13:45:00;24.00;50.90
65038;DHT22;51605;47.040;15.294;2023-07-29T13:47:25;24.00;50.90
65038;DHT22;51605;47.040;15.294;2023-07-29T13:49:51;24.00;50.90
65038;DHT22;51605;47.040;15.294;2023-07-29T13:52:17;24.00;51.90
65038;DHT22;51605;47.040;15.294;2023-07-29T13:54:42;24.00;50.90
65038;DHT22;51605;47.040;15.294;2023-07-29T13:57:08;24.00;50.90
65038;DHT22;51605;47.040;15.294;2023-07-29T13:59:35;24.00;50.90
65038;DHT22;51605;47.040;15.294;2023-07-29T14:02:06;24.00;50.90
65038;DHT22;51605;47.040;15.294;2023-07-29T14:04:33;24.00;50.90
65038;DHT22;51605;47.040;15.294;2023-07-29T14:06:58;24.00;50.90
65038;DHT22;51605;47.040;15.294;2023-07-29T14:09:25;24.00;50.90
65038;DHT22;51605;47.040;15.294;2023-07-29T14:11:51;24.00;50.90
65038;DHT22;51605;47.040;15.294;2023-07-29T14:14:16;24.00;51.00
65038;DHT22;51605;47.040;15.294;2023-07-29T14:16:42;24.00;50.90
65038;DHT22;51605;47.040;15.294;2023-07-29T14:19:08;24.00;51.00
65038;DHT22;51605;47.040;15.294;2023-07-29T14:21:33;24.00;50.90
65038;DHT22;51605;47.040;15.294;2023-07-29T14:23:59;24.00;50.90
65038;DHT22;51605;47.040;15.294;2023-07-29T14:26:25;24.00;50.90
65038;DHT22;51605;47.040;15.294;2023-07-29T14:28:50;24.00;50.90
65038;DHT22;51605;47.040;15.294;2023-07-29T14:31:16;24.10;51.00
65038;DHT22;51605;47.040;15.294;2023-07-29T14:33:46;24.00;50.90
65038;DHT22;51605;47.040;15.294;2023-07-29T14:36:11;24.00;51.00
65038;DHT22;51605;47.040;15.294;2023-07-29T14:38:37;24.10;51.00
65038;DHT22;51605;47.040;15.294;2023-07-29T14:41:03;24.00;50.90
65038;DHT22;51605;47.040;15.294;2023-07-29T14:43:30;24.00;50.90
65038;DHT22;51605;47.040;15.294;2023-07-29T14:45:56;24.00;50.90
65038;DHT22;51605;47.040;15.294;2023-07-29T14:48:22;24.00;50.90
65038;DHT22;51605;47.040;15.294;2023-07-29T14:50:48;24.00;51.20
65038;DHT22;51605;47.040;15.294;2023-07-29T14:53:13;24.10;51.00
65038;DHT22;51605;47.040;15.294;2023-07-29T14:55:39;24.00;51.00
65038;DHT22;51605;47.040;15.294;2023-07-29T14:58:05;24.00;50.90
65038;DHT22;51605;47.040;15.294;2023-07-29T15:00:30;24.00;50.90
65038;DHT22;51605;47.040;15.294;2023-07-29T15:02:56;24.00;50.90
65038;DHT22;51605;47.040;15.294;2023-07-29T15:05:21;24.00;50.90
65038;DHT22;51605;47.040;15.294;2023-07-29T15:07:47;24.00;50.90
65038;DHT22;51605;47.040;15.294;2023-07-29T15:10:17;24.10;51.00
65038;DHT22;51605;47.040;15.294;2023-07-29T15:12:43;24.00;50.90
65038;DHT22;51605;47.040;15.294;2023-07-29T15:15:10;24.10;51.00
65038;DHT22;51605;47.040;15.294;2023-07-29T15:17:37;24.00;50.90
65038;DHT22;51605;47.040;15.294;2023-07-29T15:20:03;24.10;51.00